Tiempo atmosférico en la estación meteorológica de Abenójar, Ciudad Real (718 m.)



Fecha
DESCASC
Temp. máxima en grados centígrados (hora)
DESCASC
Temp. mínima en grados centígrados (hora)
DESCASC
Temp. media en grados centígrados
DESCASC
Racha de viento máxima en m/sg (hora)
DESCASC
Velocidad máxima media en intervalos de 10 minutos(hora)
DESCASC
Precipitaciones diarias en mm
DESCASC
Precipitaciones de 00:00 a 06:00 en mm
DESCASC
Precipitaciones de 06:00 a 12:00 en mm
DESCASC
Precipitaciones de 12:00 a 18:00 en mm
DESCASC
Precipitaciones de 18:00 a 24:00 en mm
DESCASC
10-07-2020 36 (17:20) 17.8 (06:10) 26.9 8.61 (00:30) 5.83 (00:30) 0 0 0 0 0
09-07-2020 35 (17:30) 16.1 (07:10) 25.6 15 (22:50) 8.89 (23:00) 0 0 0 0 0
08-07-2020 36.5 (16:50) 22.9 (23:59) 29.7 11.39 (16:50) 6.11 (17:10) 0 0 0 0 0
07-07-2020 39.1 (16:50) 20.7 (07:00) 29.9 11.11 (15:30) 5.83 (17:50) 0 0 0 0 0
06-07-2020 38.8 (16:50) 20.5 (00:00) 29.6 10.28 (18:20) 5 (15:30) 0 0 0 0 0
05-07-2020 37.9 (17:10) 19.6 (00:00) 28.8 9.44 (05:30) 6.67 (05:50) 0 0 0 0 0
04-07-2020 35.6 (18:40) 17 (00:00) 26.3 7.5 (08:20) 4.17 (08:20) 0 0 0 0 0
03-07-2020 32.7 (17:40) 13.5 (07:30) 23.1 9.44 (16:40) 4.17 (18:20) 0 0 0 0 0
02-07-2020 31.5 (16:00) 16.6 (00:00) 24.1 13.06 (16:10) 7.5 (16:30) 0 0 0 0 0
01-07-2020 34.6 (17:40) 17.4 (00:00) 26 11.11 (14:20) 6.11 (17:50) 0 0 0 0 0
30-06-2020 36.6 (17:20) 18.9 (00:00) 27.7 10 (17:50) 5.83 (17:40) 0 0 0 0 0
29-06-2020 36.7 (16:50) 19.5 (00:00) 28.1 10.28 (18:30) 4.17 (19:00) 0 0 0 0 0
28-06-2020 34.3 (18:30) 16.2 (00:00) 25.3 8.61 (19:00) 4.72 (19:00) 0 0 0 0 0
27-06-2020 31 (17:50) 13.9 (00:00) 22.4 9.17 (16:50) 4.72 (18:00) 0 0 0 0 0
26-06-2020 29.8 (16:20) 16.7 (00:00) 23.3 12.5 (15:00) 6.11 (17:10) 0 0 0 0 0
25-06-2020 34.3 (17:10) 18.6 (00:00) 26.4 8.61 (16:40) 5.28 (20:40) 0 0 0 0 0
24-06-2020 35.4 (16:00) 20.6 (00:00) 28 10 (16:30) 6.94 (16:30) 0 0 0 0 0
23-06-2020 36.7 (17:40) 18.6 (00:00) 27.7 8.89 (16:10) 5.28 (08:00) 0 0 0 0 0
22-06-2020 36.8 (18:40) 17.7 (00:00) 27.3 11.67 (09:00) 7.78 (09:10) 0 0 0 0 0
21-06-2020 33.4 (17:00) 14.6 (00:00) 24 8.61 (14:40) 4.17 (14:40) 0 0 0 0 0
20-06-2020 31.8 (18:00) 13 (00:00) 22.4 10.28 (17:10) 5 (17:10) 0 0 0 0 0
19-06-2020 29.4 (18:10) 13.2 (00:00) 21.3 10.28 (16:00) 5.56 (20:20) 0 0 0 0 0
18-06-2020 28 (17:30) 10.5 (00:00) 19.3 8.06 (16:40) 4.44 (17:00) 0 0 0 0 0
17-06-2020 25.2 (18:00) 12.3 (00:00) 18.8 11.39 (15:00) 5.83 (15:50) 0 0 0 0 0
16-06-2020 25.3 (18:00) 12.9 (00:00) 19.1 14.44 (16:10) 7.5 (15:20) 0 0 0 0 0
15-06-2020 26.8 (17:20) 10.5 (00:00) 18.6 12.22 (18:00) 6.11 (18:30) 0 0 0 0 0
14-06-2020 25.3 (17:50) 11.3 (00:00) 18.3 11.67 (15:40) 5.56 (16:30) 0 0 0 0 0
13-06-2020 21.9 (16:10) 7.7 (00:00) 14.8 10.56 (14:10) 5.28 (00:10) 0 0 0 0 0
12-06-2020 19 (17:10) 8.9 (00:00) 13.9 12.22 (22:10) 8.33 (01:40) 0 0 0 0 0

Gráficas

Temp. máximas Temp. mínimas Temp. medias Precipitaciones Rachas de viento máximas Velocidades máximas media en intervalos de 10 minutos

Datos horarios

Fecha y hora oficial Temperatura (ºC) Velocidad del viento (km/h) Dirección del viento Racha (km/h) Dirección de racha Precipitación (mm) Presión (hPa) Tendencia (hPa) Humedad (%)
2020-07-11 23:00:00 29.9 8 Nordeste 10 Nordeste 0 -- -- 26
2020-07-11 22:00:00 32.5 8 Sudoeste 16 Sudoeste 0 -- -- 24
2020-07-11 21:00:00 35.1 9 Sur 26 Sudoeste 0 -- -- 20
2020-07-11 20:00:00 37.1 15 Sur 27 Sur 0 -- -- 15
2020-07-11 19:00:00 37.9 10 Sudoeste 30 Sudeste 0 -- -- 15
2020-07-11 18:00:00 37.8 15 Este 30 Sudeste 0 -- -- 16
2020-07-11 17:00:00 38.6 12 Sur 27 Sudoeste 0 -- -- 17
2020-07-11 16:00:00 38.3 14 Sur 27 Sudeste 0 -- -- 18
2020-07-11 15:00:00 36.8 10 Este 23 Este 0 -- -- 22
2020-07-11 14:00:00 35.5 8 Sudeste 21 Este 0 -- -- 23
2020-07-11 13:00:00 33.5 7 Nordeste 18 Sudeste 0 -- -- 28
2020-07-11 12:00:00 31.7 9 Sudeste 19 Nordeste 0 -- -- 30
2020-07-11 11:00:00 28.2 12 Nordeste 21 Nordeste 0 -- -- 43
2020-07-11 10:00:00 25.1 12 Nordeste 24 Este 0 -- -- 51
2020-07-11 09:00:00 23 15 Este 30 Nordeste 0 -- -- 57
2020-07-11 08:00:00 21 17 Este 31 Nordeste 0 -- -- 64
2020-07-11 07:00:00 20.7 22 Este 29 Este 0 -- -- 61
2020-07-11 06:00:00 21.8 15 Nordeste 34 Este 0 -- -- 56
2020-07-11 05:00:00 22 16 Nordeste 24 Nordeste 0 -- -- 50
2020-07-11 04:00:00 23.3 17 Nordeste 23 Nordeste 0 -- -- 43
2020-07-11 03:00:00 24.6 18 Nordeste 21 Nordeste 0 -- -- 37
2020-07-11 02:00:00 25.6 15 Nordeste 19 Nordeste 0 -- -- 33
2020-07-11 01:00:00 26.7 13 Nordeste 19 Este 0 -- -- 31
2020-07-11 00:00:00 27.7 11 Este 23 Norte 0 -- -- 30
2020-07-10 23:00:00 28.8 10 Nordeste 19 Nordeste 0 -- -- 28
2020-07-10 22:00:00 30.1 9 Norte 14 Norte 0 -- -- 28
2020-07-10 21:00:00 33.1 9 Noroeste 18 Noroeste 0 -- -- 22
2020-07-10 20:00:00 34.6 6 Noroeste 24 Oeste 0 -- -- 20
2020-07-10 19:00:00 34.9 10 Oeste 25 Oeste 0 -- -- 20
2020-07-10 18:00:00 34.5 11 Oeste 26 Noroeste 0 -- -- 20
2020-07-10 17:00:00 35.6 8 Oeste 28 Oeste 0 -- -- 21
2020-07-10 16:00:00 35.3 8 Oeste 24 Oeste 0 -- -- 21
2020-07-10 15:00:00 34.5 8 Oeste 19 Noroeste 0 -- -- 22
2020-07-10 14:00:00 33.5 7 Sudeste 18 Sur 0 -- -- 25
2020-07-10 13:00:00 31.6 4 Sudeste 19 Este 0 -- -- 30
2020-07-10 12:00:00 28.6 5 Noroeste 13 Nordeste 0 -- -- 37
2020-07-10 11:00:00 26.5 6 Este 15 Nordeste 0 -- -- 42
2020-07-10 10:00:00 24.1 9 Este 17 Sudeste 0 -- -- 48
2020-07-10 09:00:00 21.8 9 Nordeste 18 Este 0 -- -- 53
2020-07-10 08:00:00 19.2 4 Este 14 Nordeste 0 -- -- 61
2020-07-10 07:00:00 17.9 8 Nordeste 18 Nordeste 0 -- -- 62
2020-07-10 06:00:00 18 9 Nordeste 20 Nordeste 0 -- -- 60
2020-07-10 05:00:00 18.7 13 Nordeste 20 Nordeste 0 -- -- 57
2020-07-10 04:00:00 19 14 Nordeste 21 Nordeste 0 -- -- 53
2020-07-10 03:00:00 20.3 10 Nordeste 24 Nordeste 0 -- -- 52
2020-07-10 02:00:00 21.1 17 Nordeste 29 Nordeste 0 -- -- 50
2020-07-10 01:00:00 21.8 17 Nordeste 31 Nordeste 0 -- -- 46
2020-07-10 00:00:00 22.4 18 Este 51 Este 0 -- -- 40
2020-07-09 23:00:00 24.3 32 Este 54 Este 0 -- -- 32
2020-07-09 22:00:00 27.6 8 Norte 10 Oeste 0 -- -- 17
2020-07-09 21:00:00 31.9 11 Noroeste 19 Oeste 0 -- -- 14
2020-07-09 20:00:00 33.3 11 Oeste 25 Noroeste 0 -- -- 15
2020-07-09 19:00:00 34.5 4 Sudeste 16 Sudoeste 0 -- -- 15
2020-07-09 18:00:00 34 9 Oeste 26 Oeste 0 -- -- 15
2020-07-09 17:00:00 34 13 Noroeste 22 Noroeste 0 -- -- 16
2020-07-09 16:00:00 34.6 7 Sudoeste 21 Noroeste 0 -- -- 16
2020-07-09 15:00:00 33.4 9 Sudeste 21 Este 0 -- -- 16
2020-07-09 14:00:00 32.3 10 Sur 21 Sur 0 -- -- 18
2020-07-09 13:00:00 30.9 8 Oeste 17 Oeste 0 -- -- 21
2020-07-09 12:00:00 29.6 5 Sur 13 Sur 0 -- -- 23
2020-07-09 11:00:00 27.2 5 Oeste 13 Sudoeste 0 -- -- 27
2020-07-09 10:00:00 25.4 8 Oeste 14 Oeste 0 -- -- 28
2020-07-09 09:00:00 23.8 5 Noroeste 8 Oeste 0 -- -- 31
2020-07-09 08:00:00 18.2 3 Sudeste 5 Nordeste 0 -- -- 48
2020-07-09 07:00:00 16.2 3 Sudeste 6 Este 0 -- -- 48
2020-07-09 06:00:00 17.3 0 Calma 6 Sudoeste 0 -- -- 46
2020-07-09 05:00:00 18 3 Sur 5 Sur 0 -- -- 43
2020-07-09 04:00:00 18.1 0 Calma 6 Sudoeste 0 -- -- 44
2020-07-09 03:00:00 19 0 Calma 5 Oeste 0 -- -- 38
2020-07-09 02:00:00 20.6 6 Oeste 12 Oeste 0 -- -- 33
2020-07-09 01:00:00 20.8 4 Oeste 10 Oeste 0 -- -- 33
2020-07-09 00:00:00 22.9 3 Oeste 10 Oeste 0 -- -- 31
2020-07-08 23:00:00 27.1 8 Oeste 21 Oeste 0 -- -- 24
2020-07-08 22:00:00 29.1 8 Sudoeste 26 Sudoeste 0 -- -- 23
2020-07-08 21:00:00 32.3 14 Sudoeste 31 Sudoeste 0 -- -- 18
2020-07-08 20:00:00 34.5 15 Sudoeste 33 Sudoeste 0 -- -- 17
2020-07-08 19:00:00 36.2 21 Sur 39 Sur 0 -- -- 17
2020-07-08 18:00:00 35.6 22 Sur 38 Sur 0 -- -- 17
2020-07-08 17:00:00 36.1 21 Sudoeste 41 Sudoeste 0 -- -- 17
2020-07-08 16:00:00 34.6 14 Sudoeste 33 Sur 0 -- -- 19
2020-07-08 15:00:00 33.7 14 Sudoeste 32 Sudoeste 0 -- -- 19
2020-07-08 14:00:00 35.4 16 Sudoeste 33 Sur 0 -- -- 19
2020-07-08 13:00:00 35.5 9 Este 22 Este 0 -- -- 23
2020-07-08 12:00:00 34.9 13 Este 21 Este 0 -- -- 22
2020-07-08 11:00:00 33.2 3 Este 9 Este 0 -- -- 23
2020-07-08 10:00:00 30.6 3 Sur 15 Este 0 -- -- 25
2020-07-08 09:00:00 27.5 5 Nordeste 27 Este 0 -- -- 32
2020-07-08 08:00:00 25.4 10 Este 18 Este 0 -- -- 33
2020-07-08 07:00:00 26.2 10 Este 23 Este 0 -- -- 24
2020-07-08 06:00:00 25.6 12 Este 20 Oeste 0 -- -- 26
2020-07-08 05:00:00 28 16 Este 22 Este 0 -- -- 22
2020-07-08 04:00:00 24.5 0 Calma 13 Oeste 0 -- -- 27
2020-07-08 03:00:00 25.4 6 Este 10 Nordeste 0 -- -- 24
2020-07-08 02:00:00 26.1 4 Nordeste 6 Este 0 -- -- 25
2020-07-08 01:00:00 26.7 4 Este 7 Sur 0 -- -- 23
2020-07-08 00:00:00 27.6 3 Nordeste 8 Nordeste 0 -- -- 23
2020-07-07 23:00:00 29.2 5 Norte 11 Norte 0 -- -- 22
2020-07-07 22:00:00 32 8 Norte 13 Noroeste 0 -- -- 17
2020-07-07 21:00:00 34.9 9 Noroeste 22 Noroeste 0 -- -- 16
2020-07-07 20:00:00 37 14 Noroeste 31 Oeste 0 -- -- 15
2020-07-07 19:00:00 38.1 17 Noroeste 34 Oeste 0 -- -- 15
2020-07-07 18:00:00 38.7 21 Noroeste 32 Oeste 0 -- -- 14
2020-07-07 17:00:00 38.9 20 Oeste 36 Sudoeste 0 -- -- 14
2020-07-07 16:00:00 38.3 17 Sudoeste 40 Oeste 0 -- -- 16
2020-07-07 15:00:00 38.4 16 Oeste 32 Oeste 0 -- -- 17
2020-07-07 14:00:00 37.6 10 Oeste 24 Oeste 0 -- -- 20
2020-07-07 13:00:00 36.6 6 Sur 15 Sudoeste 0 -- -- 22
2020-07-07 12:00:00 34.4 4 Sudoeste 13 Sur 0 -- -- 26
2020-07-07 11:00:00 31.2 6 Sudeste 14 Nordeste 0 -- -- 30
2020-07-07 10:00:00 28.3 5 Nordeste 13 Sudeste 0 -- -- 35
2020-07-07 09:00:00 26.5 8 Este 12 Este 0 -- -- 37
2020-07-07 08:00:00 24.1 10 Nordeste 13 Nordeste 0 -- -- 33
2020-07-07 07:00:00 20.7 4 Nordeste 9 Nordeste 0 -- -- 38
2020-07-07 06:00:00 21.1 3 Nordeste 4 Nordeste 0 -- -- 38
2020-07-07 05:00:00 22.3 3 Noroeste 5 Noroeste 0 -- -- 35
2020-07-07 04:00:00 23.8 3 Nordeste 17 Nordeste 0 -- -- 32
2020-07-07 03:00:00 25.8 9 Norte 14 Norte 0 -- -- 29
2020-07-07 02:00:00 28 7 Noroeste 10 Noroeste 0 -- -- 25
2020-07-07 01:00:00 28.2 7 Noroeste 11 Noroeste 0 -- -- 25
2020-07-07 00:00:00 27.6 6 Noroeste 9 Noroeste 0 -- -- 27
2020-07-06 23:00:00 27.9 0 Calma 6 Noroeste 0 -- -- 27
2020-07-06 22:00:00 31 2 Oeste 15 Oeste 0 -- -- 23
2020-07-06 21:00:00 35.5 10 Oeste 22 Oeste 0 -- -- 17
2020-07-06 20:00:00 37 12 Oeste 27 Oeste 0 -- -- 15
2020-07-06 19:00:00 37.9 13 Oeste 37 Oeste 0 -- -- 15
2020-07-06 18:00:00 38.4 10 Noroeste 23 Oeste 0 -- -- 14
2020-07-06 17:00:00 38.5 9 Noroeste 29 Oeste 0 -- -- 15
2020-07-06 16:00:00 38.3 12 Oeste 35 Noroeste 0 -- -- 15
2020-07-06 15:00:00 37.4 9 Norte 25 Noroeste 0 -- -- 15
2020-07-06 14:00:00 37 7 Noroeste 27 Oeste 0 -- -- 17
2020-07-06 13:00:00 36.2 6 Noroeste 17 Oeste 0 -- -- 18
2020-07-06 12:00:00 34.2 5 Noroeste 13 Noroeste 0 -- -- 20
2020-07-06 11:00:00 31.6 5 Sudoeste 12 Oeste 0 -- -- 24
2020-07-06 10:00:00 29.6 8 Oeste 11 Sudoeste 0 -- -- 28
2020-07-06 09:00:00 27.6 0 Calma 7 Nordeste 0 -- -- 30
2020-07-06 08:00:00 23.2 8 Nordeste 18 Nordeste 0 -- -- 37
2020-07-06 07:00:00 22.1 11 Nordeste 18 Nordeste 0 -- -- 36
2020-07-06 06:00:00 20.8 3 Nordeste 5 Noroeste 0 -- -- 42
2020-07-06 05:00:00 21.5 2 Noroeste 5 Noroeste 0 -- -- 41
2020-07-06 04:00:00 23.5 0 Calma 7 Sur 0 -- -- 34
2020-07-06 03:00:00 24.7 6 Noroeste 9 Norte 0 -- -- 35
2020-07-06 02:00:00 26 7 Noroeste 10 Noroeste 0 -- -- 33
2020-07-06 01:00:00 26.7 3 Noroeste 11 Sudoeste 0 -- -- 32
2020-07-06 00:00:00 28.7 7 Sudoeste 17 Noroeste 0 -- -- 25
2020-07-05 23:00:00 30.7 8 Norte 13 Norte 0 -- -- 22
2020-07-05 22:00:00 31.3 7 Norte 13 Norte 0 -- -- 23
2020-07-05 21:00:00 34.9 6 Noroeste 22 Oeste 0 -- -- 20
2020-07-05 20:00:00 36.6 6 Noroeste 27 Oeste 0 -- -- 17
2020-07-05 19:00:00 36.9 5 Noroeste 23 Sudoeste 0 -- -- 17
2020-07-05 18:00:00 37.7 10 Sudoeste 24 Oeste 0 -- -- 17
2020-07-05 17:00:00 37.8 11 Sudoeste 26 Sur 0 -- -- 16
2020-07-05 16:00:00 37.2 11 Noroeste 22 Norte 0 -- -- 19
2020-07-05 15:00:00 36.2 10 Noroeste 22 Este 0 -- -- 20
2020-07-05 14:00:00 35.4 6 Nordeste 18 Sudeste 0 -- -- 20
2020-07-05 13:00:00 34 6 Sudeste 16 Nordeste 0 -- -- 27
2020-07-05 12:00:00 31.2 3 Noroeste 9 Sur 0 -- -- 31
2020-07-05 11:00:00 28.6 6 Sudeste 15 Nordeste 0 -- -- 36
2020-07-05 10:00:00 24.4 11 Nordeste 19 Nordeste 0 -- -- 58
2020-07-05 09:00:00 22.6 10 Este 30 Este 0 -- -- 67
2020-07-05 08:00:00 20.2 17 Este 29 Este 0 -- -- 77
2020-07-05 07:00:00 19.9 16 Este 26 Este 0 -- -- 72
2020-07-05 06:00:00 20.9 23 Nordeste 34 Nordeste 0 -- -- 63
2020-07-05 05:00:00 21.7 17 Nordeste 24 Nordeste 0 -- -- 38
2020-07-05 04:00:00 23.3 17 Nordeste 23 Nordeste 0 -- -- 30
2020-07-05 03:00:00 24.7 17 Nordeste 24 Nordeste 0 -- -- 28
2020-07-05 02:00:00 25.7 14 Nordeste 20 Este 0 -- -- 26
2020-07-05 01:00:00 25.7 10 Nordeste 14 Nordeste 0 -- -- 25
2020-07-05 00:00:00 25.3 4 Sudoeste 10 Nordeste 0 -- -- 26
2020-07-04 23:00:00 27.4 8 Nordeste 12 Nordeste 0 -- -- 22
2020-07-04 22:00:00 28.6 6 Nordeste 10 Nordeste 0 -- -- 22
2020-07-04 21:00:00 33 8 Norte 15 Nordeste 0 -- -- 17
2020-07-04 20:00:00 34.4 7 Nordeste 17 Nordeste 0 -- -- 16
2020-07-04 19:00:00 35.4 7 Oeste 24 Sudoeste 0 -- -- 15
2020-07-04 18:00:00 35.4 13 Oeste 25 Este 0 -- -- 15
2020-07-04 17:00:00 35.1 10 Sudoeste 22 Oeste 0 -- -- 16
2020-07-04 16:00:00 34 6 Oeste 18 Noroeste 0 -- -- 16
2020-07-04 15:00:00 33.1 5 Noroeste 20 Sudeste 0 -- -- 18
2020-07-04 14:00:00 32.3 7 Noroeste 17 Oeste 0 -- -- 20
2020-07-04 13:00:00 31.8 7 Sur 17 Sudeste 0 -- -- 22
2020-07-04 12:00:00 29.2 9 Este 15 Este 0 -- -- 33
2020-07-04 11:00:00 26.4 9 Sudeste 17 Este 0 -- -- 47
2020-07-04 10:00:00 23.9 10 Este 19 Sudeste 0 -- -- 57
2020-07-04 09:00:00 22 3 Sudeste 27 Este 0 -- -- 65
2020-07-04 08:00:00 20.1 13 Nordeste 21 Este 0 -- -- 62
2020-07-04 07:00:00 17.3 6 Nordeste 9 Nordeste 0 -- -- 46
2020-07-04 06:00:00 17.3 5 Nordeste 8 Nordeste 0 -- -- 41
2020-07-04 05:00:00 17.8 2 Noroeste 5 Nordeste 0 -- -- 46
2020-07-04 04:00:00 19.8 2 Sudoeste 9 Norte 0 -- -- 40
2020-07-04 03:00:00 21.8 7 Norte 9 Norte 0 -- -- 34
2020-07-04 02:00:00 22.3 7 Noroeste 9 Noroeste 0 -- -- 32
2020-07-04 01:00:00 23.5 8 Norte 15 Noroeste 0 -- -- 29
2020-07-04 00:00:00 24.5 8 Noroeste 14 Noroeste 0 -- -- 23
2020-07-03 23:00:00 25.3 8 Noroeste 14 Noroeste 0 -- -- 22
2020-07-03 22:00:00 27.5 8 Oeste 18 Oeste 0 -- -- 21
2020-07-03 21:00:00 30.7 9 Sudoeste 18 Oeste 0 -- -- 18
2020-07-03 20:00:00 32.1 7 Sudoeste 19 Oeste 0 -- -- 15
2020-07-03 19:00:00 32.5 8 Oeste 28 Oeste 0 -- -- 14
2020-07-03 18:00:00 32.6 9 Noroeste 30 Oeste 0 -- -- 15
2020-07-03 17:00:00 32 7 Oeste 34 Noroeste 0 -- -- 18
2020-07-03 16:00:00 32 6 Norte 27 Oeste 0 -- -- 16
2020-07-03 15:00:00 30.6 9 Oeste 20 Oeste 0 -- -- 15
2020-07-03 14:00:00 29 9 Oeste 20 Oeste 0 -- -- 17
2020-07-03 13:00:00 28.1 5 Sur 16 Oeste 0 -- -- 20
2020-07-03 12:00:00 26.3 6 Oeste 13 Sudoeste 0 -- -- 25
2020-07-03 11:00:00 24.2 4 Nordeste 10 Oeste 0 -- -- 35
2020-07-03 10:00:00 21.2 7 Noroeste 15 Oeste 0 -- -- 43
2020-07-03 09:00:00 19.1 8 Noroeste 13 Noroeste 0 -- -- 49
2020-07-03 08:00:00 15.1 3 Oeste 5 Sudoeste 0 -- -- 62
2020-07-03 07:00:00 13.9 2 Sudeste 6 Oeste 0 -- -- 63
2020-07-03 06:00:00 14.8 4 Norte 6 Nordeste 0 -- -- 60
2020-07-03 05:00:00 15.1 0 Calma 6 Oeste 0 -- -- 58
2020-07-03 04:00:00 16.9 3 Oeste 8 Oeste 0 -- -- 52
2020-07-03 03:00:00 19.1 0 Calma 15 Oeste 0 -- -- 46
2020-07-03 02:00:00 20.7 9 Oeste 18 Oeste 0 -- -- 41
2020-07-03 01:00:00 22 7 Noroeste 15 Oeste 0 -- -- 39
2020-07-03 00:00:00 23.1 9 Noroeste 16 Oeste 0 -- -- 38
2020-07-02 23:00:00 24.7 9 Oeste 18 Oeste 0 -- -- 38
2020-07-02 22:00:00 26.4 13 Oeste 28 Oeste 0 -- -- 32
2020-07-02 21:00:00 28.6 14 Oeste 38 Oeste 0 -- -- 22
2020-07-02 20:00:00 29.8 21 Oeste 38 Oeste 0 -- -- 19
2020-07-02 19:00:00 30.7 19 Oeste 41 Oeste 0 -- -- 19
2020-07-02 18:00:00 31.2 22 Oeste 42 Oeste 0 -- -- 21
2020-07-02 17:00:00 31.1 19 Oeste 47 Oeste 0 -- -- 21
2020-07-02 16:00:00 31.5 21 Oeste 40 Oeste 0 -- -- 21
2020-07-02 15:00:00 30.7 20 Oeste 44 Oeste 0 -- -- 24
2020-07-02 14:00:00 30.2 22 Oeste 37 Oeste 0 -- -- 23
2020-07-02 13:00:00 29.6 17 Oeste 31 Oeste 0 -- -- 26
2020-07-02 12:00:00 28.3 17 Oeste 28 Oeste 0 -- -- 30
2020-07-02 11:00:00 26.7 12 Oeste 23 Oeste 0 -- -- 35
2020-07-02 10:00:00 24.4 8 Oeste 17 Oeste 0 -- -- 46
2020-07-02 09:00:00 22 10 Oeste 17 Oeste 0 -- -- 52
2020-07-02 08:00:00 18.1 2 Noroeste 3 Oeste 0 -- -- 65
2020-07-02 07:00:00 16.9 3 Noroeste 4 Oeste 0 -- -- 64
2020-07-02 06:00:00 17.7 2 Noroeste 5 Noroeste 0 -- -- 61
2020-07-02 05:00:00 18.4 3 Noroeste 8 Oeste 0 -- -- 57
2020-07-02 04:00:00 18.9 3 Noroeste 5 Oeste 0 -- -- 51
2020-07-02 03:00:00 20.2 0 Calma 4 Nordeste 0 -- -- 47
2020-07-02 02:00:00 20.9 2 Norte 6 Norte 0 -- -- 44
2020-07-02 01:00:00 21.7 2 Norte 6 Norte 0 -- -- 38
2020-07-02 00:00:00 23 0 Calma 4 Nordeste 0 -- -- 35
2020-07-01 23:00:00 25.2 3 Sudeste 8 Oeste 0 -- -- 29
2020-07-01 22:00:00 28.5 7 Noroeste 25 Noroeste 0 -- -- 23
2020-07-01 21:00:00 31.1 20 Noroeste 32 Noroeste 0 -- -- 21
2020-07-01 20:00:00 32.8 20 Oeste 37 Oeste 0 -- -- 23
2020-07-01 19:00:00 33.8 21 Oeste 35 Oeste 0 -- -- 22
2020-07-01 18:00:00 34.5 18 Oeste 40 Oeste 0 -- -- 21
2020-07-01 17:00:00 34.2 19 Oeste 37 Oeste 0 -- -- 21
2020-07-01 16:00:00 34.1 14 Sudoeste 37 Oeste 0 -- -- 20
2020-07-01 15:00:00 33 18 Sudoeste 40 Oeste 0 -- -- 23
2020-07-01 14:00:00 32.4 18 Sudoeste 33 Sudoeste 0 -- -- 24
2020-07-01 13:00:00 31 16 Sudoeste 32 Sudoeste 0 -- -- 30
2020-07-01 12:00:00 29.5 14 Sudoeste 32 Oeste 0 -- -- 34
2020-07-01 11:00:00 28 17 Sudoeste 31 Sudoeste 0 -- -- 39
2020-07-01 10:00:00 26.2 9 Sudoeste 19 Oeste 0 -- -- 44
2020-07-01 09:00:00 23.8 8 Oeste 13 Oeste 0 -- -- 49
2020-07-01 08:00:00 19.2 0 Calma 5 Noroeste 0 -- -- 67
2020-07-01 07:00:00 17.6 0 Calma 3 Noroeste 0 -- -- 67
2020-07-01 06:00:00 19.1 3 Noroeste 7 Sudoeste 0 -- -- 62
2020-07-01 05:00:00 20.8 4 Noroeste 10 Oeste 0 -- -- 57
2020-07-01 04:00:00 22.1 3 Noroeste 11 Noroeste 0 -- -- 54
2020-07-01 03:00:00 22.8 4 Noroeste 10 Noroeste 0 -- -- 51
2020-07-01 02:00:00 23.3 6 Oeste 12 Oeste 0 -- -- 48
2020-07-01 01:00:00 23.6 4 Sudoeste 7 Sudoeste 0 -- -- 43
2020-07-01 00:00:00 24.9 3 Sudoeste 8 Sudoeste 0 -- -- 40
2020-06-30 23:00:00 28 0 Calma 14 Oeste 0 -- -- 34
2020-06-30 22:00:00 31.3 10 Oeste 23 Oeste 0 -- -- 29
2020-06-30 21:00:00 33.5 11 Sudoeste 30 Sudoeste 0 -- -- 23
2020-06-30 20:00:00 35.2 14 Sudoeste 35 Oeste 0 -- -- 22
2020-06-30 19:00:00 35.6 18 Oeste 33 Oeste 0 -- -- 18
2020-06-30 18:00:00 36 18 Sudoeste 36 Oeste 0 -- -- 17
2020-06-30 17:00:00 36.4 12 Sudoeste 33 Sudoeste 0 -- -- 17
2020-06-30 16:00:00 36.2 16 Oeste 32 Oeste 0 -- -- 16
2020-06-30 15:00:00 35.6 11 Sudoeste 29 Sudoeste 0 -- -- 20
2020-06-30 14:00:00 34.9 14 Sudoeste 33 Oeste 0 -- -- 23
2020-06-30 13:00:00 34.1 10 Sudoeste 26 Sudoeste 0 -- -- 25
2020-06-30 12:00:00 32.5 7 Sudoeste 17 Sudoeste 0 -- -- 28
2020-06-30 11:00:00 30.5 5 Sudoeste 11 Sur 0 -- -- 32
2020-06-30 10:00:00 28.1 3 Sudoeste 9 Oeste 0 -- -- 36
2020-06-30 09:00:00 25.4 3 Oeste 6 Oeste 0 -- -- 39
2020-06-30 08:00:00 20.2 0 Calma 4 Sur 0 -- -- 60
2020-06-30 07:00:00 19.1 2 Sudeste 3 Sudeste 0 -- -- 54
2020-06-30 06:00:00 19.7 0 Calma 3 Este 0 -- -- 51
2020-06-30 05:00:00 20.3 2 Este 4 Sudeste 0 -- -- 47
2020-06-30 04:00:00 21.1 0 Calma 6 Sudeste 0 -- -- 46
2020-06-30 03:00:00 22.6 3 Sudeste 6 Sudeste 0 -- -- 41
2020-06-30 02:00:00 23.9 2 Este 9 Sudeste 0 -- -- 38
2020-06-30 01:00:00 24.6 2 Este 6 Nordeste 0 -- -- 37
2020-06-30 00:00:00 26.5 2 Este 9 Sur 0 -- -- 34
2020-06-29 23:00:00 29.2 6 Sur 13 Norte 0 -- -- 30
2020-06-29 22:00:00 31.4 9 Noroeste 14 Noroeste 0 -- -- 27
2020-06-29 21:00:00 34.3 10 Noroeste 20 Noroeste 0 -- -- 24
2020-06-29 20:00:00 35.9 10 Oeste 22 Oeste 0 -- -- 21
2020-06-29 19:00:00 36.6 15 Oeste 37 Noroeste 0 -- -- 20
2020-06-29 18:00:00 36.7 12 Oeste 23 Oeste 0 -- -- 21
2020-06-29 17:00:00 36.7 5 Sudoeste 27 Oeste 0 -- -- 20
2020-06-29 16:00:00 35.7 13 Oeste 28 Oeste 0 -- -- 22
2020-06-29 15:00:00 35.3 10 Oeste 22 Oeste 0 -- -- 23
2020-06-29 14:00:00 34.2 9 Oeste 17 Oeste 0 -- -- 24
2020-06-29 13:00:00 33.2 6 Sudoeste 19 Sur 0 -- -- 27
2020-06-29 12:00:00 31.4 6 Oeste 14 Oeste 0 -- -- 30
2020-06-29 11:00:00 29.7 6 Norte 12 Nordeste 0 -- -- 35
2020-06-29 10:00:00 28.5 5 Nordeste 10 Nordeste 0 -- -- 38
2020-06-29 09:00:00 25 2 Oeste 7 Noroeste 0 -- -- 42
2020-06-29 08:00:00 21.2 5 Nordeste 8 Nordeste 0 -- -- 56
2020-06-29 07:00:00 20 7 Nordeste 8 Nordeste 0 -- -- 55
2020-06-29 06:00:00 20.1 3 Norte 6 Nordeste 0 -- -- 51
2020-06-29 05:00:00 19.6 3 Nordeste 8 Nordeste 0 -- -- 50
2020-06-29 04:00:00 20.3 3 Nordeste 5 Nordeste 0 -- -- 51
2020-06-29 03:00:00 21.2 5 Nordeste 6 Nordeste 0 -- -- 48
2020-06-29 02:00:00 22.5 3 Noroeste 5 Noroeste 0 -- -- 41
2020-06-29 01:00:00 24.8 5 Noroeste 9 Noroeste 0 -- -- 34
2020-06-29 00:00:00 26.2 7 Noroeste 10 Noroeste 0 -- -- 31
2020-06-28 23:00:00 27.3 7 Noroeste 13 Noroeste 0 -- -- 31
2020-06-28 22:00:00 28.8 8 Noroeste 22 Noroeste 0 -- -- 30
2020-06-28 21:00:00 31.6 14 Noroeste 26 Noroeste 0 -- -- 26
2020-06-28 20:00:00 33.1 12 Noroeste 25 Noroeste 0 -- -- 24
2020-06-28 19:00:00 34 17 Oeste 31 Oeste 0 -- -- 23
2020-06-28 18:00:00 34.1 8 Sudoeste 29 Oeste 0 -- -- 25
2020-06-28 17:00:00 34.1 11 Sudoeste 27 Oeste 0 -- -- 24
2020-06-28 16:00:00 33.5 10 Oeste 21 Oeste 0 -- -- 27
2020-06-28 15:00:00 32.5 13 Oeste 26 Oeste 0 -- -- 28
2020-06-28 14:00:00 31.5 6 Sur 26 Oeste 0 -- -- 31
2020-06-28 13:00:00 30.8 8 Sudoeste 21 Oeste 0 -- -- 32
2020-06-28 12:00:00 29.2 5 Sudoeste 15 Sudeste 0 -- -- 36
2020-06-28 11:00:00 28 6 Este 13 Este 0 -- -- 38
2020-06-28 10:00:00 25.2 2 Noroeste 9 Oeste 0 -- -- 49
2020-06-28 09:00:00 22.5 4 Oeste 8 Oeste 0 -- -- 57
2020-06-28 08:00:00 18.2 0 Calma 3 Nordeste 0 -- -- 74
2020-06-28 07:00:00 16.2 0 Calma 2 Nordeste 0 -- -- 76
2020-06-28 06:00:00 16.9 0 Calma 4 Noroeste 0 -- -- 71
2020-06-28 05:00:00 17.4 3 Noroeste 3 Oeste 0 -- -- 68
2020-06-28 04:00:00 18.2 0 Calma 2 Noroeste 0 -- -- 62
2020-06-28 03:00:00 20.4 3 Sudoeste 10 Noroeste 0 -- -- 54
2020-06-28 02:00:00 19.8 3 Noroeste 4 Oeste 0 -- -- 55
2020-06-28 01:00:00 20.5 2 Norte 4 Noroeste 0 -- -- 50
2020-06-28 00:00:00 22.2 4 Noroeste 9 Noroeste 0 -- -- 45
2020-06-27 23:00:00 24.4 7 Noroeste 10 Noroeste 0 -- -- 39
2020-06-27 22:00:00 26.1 6 Noroeste 22 Oeste 0 -- -- 35
2020-06-27 21:00:00 28.7 13 Oeste 24 Oeste 0 -- -- 31
2020-06-27 20:00:00 29.9 16 Oeste 27 Oeste 0 -- -- 30
2020-06-27 19:00:00 30.5 15 Oeste 30 Sudoeste 0 -- -- 30
2020-06-27 18:00:00 30.7 17 Oeste 30 Noroeste 0 -- -- 30
2020-06-27 17:00:00 30.6 14 Oeste 33 Oeste 0 -- -- 32
2020-06-27 16:00:00 29.9 13 Oeste 30 Oeste 0 -- -- 31
2020-06-27 15:00:00 29.1 15 Oeste 31 Oeste 0 -- -- 32
2020-06-27 14:00:00 28.1 17 Oeste 28 Oeste 0 -- -- 35
2020-06-27 13:00:00 26.8 13 Oeste 28 Oeste 0 -- -- 37
2020-06-27 12:00:00 24.7 12 Oeste 21 Oeste 0 -- -- 43
2020-06-27 11:00:00 22.9 11 Oeste 19 Oeste 0 -- -- 48
2020-06-27 10:00:00 20.9 10 Oeste 14 Oeste 0 -- -- 54
2020-06-27 09:00:00 18.9 7 Oeste 11 Oeste 0 -- -- 60
2020-06-27 08:00:00 16 4 Oeste 7 Oeste 0 -- -- 69
2020-06-27 07:00:00 14.2 0 Calma 4 Este 0 -- -- 69
2020-06-27 06:00:00 14.4 0 Calma 4 Norte 0 -- -- 65
2020-06-27 05:00:00 14.4 2 Norte 4 Noroeste 0 -- -- 62
2020-06-27 04:00:00 15.6 0 Calma 11 Oeste 0 -- -- 55
2020-06-27 03:00:00 16.5 8 Noroeste 11 Oeste 0 -- -- 50
2020-06-27 02:00:00 16.2 0 Calma 5 Oeste 0 -- -- 50
2020-06-27 01:00:00 17.4 4 Oeste 6 Oeste 0 -- -- 44
2020-06-27 00:00:00 18.8 0 Calma 4 Sudoeste 0 -- -- 42
2020-06-26 23:00:00 21.6 4 Oeste 23 Noroeste 0 -- -- 37
2020-06-26 22:00:00 24 11 Noroeste 26 Oeste 0 -- -- 34
2020-06-26 21:00:00 25.7 18 Noroeste 34 Oeste 0 -- -- 32
2020-06-26 20:00:00 28.1 18 Oeste 36 Oeste 0 -- -- 27
2020-06-26 19:00:00 29.1 15 Oeste 40 Oeste 0 -- -- 25
2020-06-26 18:00:00 29.2 19 Oeste 39 Oeste 0 -- -- 28
2020-06-26 17:00:00 29.2 18 Oeste 36 Oeste 0 -- -- 29
2020-06-26 16:00:00 29.7 20 Oeste 35 Oeste 0 -- -- 30
2020-06-26 15:00:00 29.4 16 Oeste 45 Sur 0 -- -- 33
2020-06-26 14:00:00 28.8 14 Oeste 35 Oeste 0 -- -- 34
2020-06-26 13:00:00 27.3 13 Oeste 30 Oeste 0 -- -- 38
2020-06-26 12:00:00 27.1 10 Sudoeste 25 Oeste 0 -- -- 41
2020-06-26 11:00:00 24.8 8 Oeste 18 Oeste 0 -- -- 42
2020-06-26 10:00:00 22.4 6 Oeste 16 Oeste 0 -- -- 49
2020-06-26 09:00:00 20.5 10 Oeste 16 Oeste 0 -- -- 63
2020-06-26 08:00:00 19 7 Oeste 12 Oeste 0 -- -- 62
2020-06-26 07:00:00 17.6 5 Oeste 9 Oeste 0 -- -- 57
2020-06-26 06:00:00 16.9 5 Oeste 7 Oeste 0 -- -- 57
2020-06-26 05:00:00 19.2 4 Oeste 12 Oeste 0 -- -- 51
2020-06-26 04:00:00 19.7 4 Noroeste 12 Sudoeste 0 -- -- 53
2020-06-26 03:00:00 21.4 8 Sudoeste 14 Sudoeste 0 -- -- 49
2020-06-26 02:00:00 21.5 4 Oeste 9 Sudoeste 0 -- -- 53
2020-06-26 01:00:00 21.1 4 Oeste 6 Oeste 0 -- -- 49
2020-06-26 00:00:00 22.8 3 Oeste 10 Oeste 0 -- -- 41
2020-06-25 23:00:00 26.1 7 Oeste 13 Oeste 0 -- -- 34
2020-06-25 22:00:00 28.4 7 Oeste 26 Oeste 0 -- -- 30
2020-06-25 21:00:00 31.1 17 Oeste 31 Oeste 0 -- -- 27
2020-06-25 20:00:00 32.2 15 Oeste 31 Oeste 0 -- -- 25
2020-06-25 19:00:00 33.6 12 Sudoeste 30 Oeste 0 -- -- 24
2020-06-25 18:00:00 33.9 9 Oeste 30 Sudoeste 0 -- -- 25
2020-06-25 17:00:00 34.2 11 Sudoeste 31 Sudoeste 0 -- -- 25
2020-06-25 16:00:00 33.9 8 Sudoeste 22 Sur 0 -- -- 25
2020-06-25 15:00:00 32.1 6 Norte 23 Oeste 0 -- -- 28
2020-06-25 14:00:00 31.8 12 Noroeste 25 Oeste 0 -- -- 28
2020-06-25 13:00:00 30.2 10 Oeste 21 Noroeste 0 -- -- 32
2020-06-25 12:00:00 28.9 9 Oeste 18 Oeste 0 -- -- 35
2020-06-25 11:00:00 26.9 9 Noroeste 21 Noroeste 0 -- -- 37
2020-06-25 10:00:00 25.1 10 Oeste 20 Oeste 0 -- -- 42
2020-06-25 09:00:00 23.3 10 Oeste 18 Oeste 0 -- -- 48
2020-06-25 08:00:00 19.6 3 Oeste 6 Oeste 0 -- -- 67
2020-06-25 07:00:00 18.7 3 Oeste 9 Sudoeste 0 -- -- 64
2020-06-25 06:00:00 19.4 0 Calma 5 Oeste 0 -- -- 59
2020-06-25 05:00:00 20.1 0 Calma 5 Sur 0 -- -- 54
2020-06-25 04:00:00 20.9 0 Calma 8 Sudoeste 0 -- -- 53
2020-06-25 03:00:00 21.9 4 Sur 11 Sur 0 -- -- 49
2020-06-25 02:00:00 22.1 3 Este 7 Norte 0 -- -- 47
2020-06-25 01:00:00 24.3 5 Nordeste 9 Noroeste 0 -- -- 41
2020-06-25 00:00:00 25 6 Norte 15 Nordeste 0 -- -- 40
2020-06-24 23:00:00 27.5 13 Nordeste 16 Nordeste 0 -- -- 34
2020-06-24 22:00:00 28.7 10 Nordeste 24 Este 0 -- -- 32
2020-06-24 21:00:00 30.7 12 Nordeste 26 Nordeste 0 -- -- 27
2020-06-24 20:00:00 32.1 15 Nordeste 28 Nordeste 0 -- -- 25
2020-06-24 19:00:00 32.5 12 Nordeste 23 Este 0 -- -- 24
2020-06-24 18:00:00 31.1 5 Nordeste 31 Este 0 -- -- 31
2020-06-24 17:00:00 33.8 23 Este 36 Este 0 -- -- 23
2020-06-24 16:00:00 35.4 6 Sur 21 Este 0 -- -- 22
2020-06-24 15:00:00 34.9 10 Sudeste 19 Este 0 -- -- 24
2020-06-24 14:00:00 33.5 6 Nordeste 19 Nordeste 0 -- -- 24
2020-06-24 13:00:00 32.4 3 Noroeste 13 Norte 0 -- -- 25
2020-06-24 12:00:00 30.1 5 Noroeste 12 Noroeste 0 -- -- 32
2020-06-24 11:00:00 28.1 5 Oeste 14 Oeste 0 -- -- 38
2020-06-24 10:00:00 26.5 6 Oeste 12 Oeste 0 -- -- 41
2020-06-24 09:00:00 23.8 3 Sudeste 8 Sudeste 0 -- -- 48
2020-06-24 08:00:00 20.8 2 Norte 9 Norte 0 -- -- 56
2020-06-24 07:00:00 20.9 4 Noroeste 6 Noroeste 0 -- -- 52
2020-06-24 06:00:00 23.2 4 Oeste 12 Oeste 0 -- -- 45
2020-06-24 05:00:00 23.6 2 Sudoeste 10 Oeste 0 -- -- 42
2020-06-24 04:00:00 24.8 8 Oeste 20 Oeste 0 -- -- 36
2020-06-24 03:00:00 24.8 0 Calma 12 Sudoeste 0 -- -- 35
2020-06-24 02:00:00 26.3 5 Sudoeste 15 Sur 0 -- -- 32
2020-06-24 01:00:00 27.8 7 Nordeste 15 Este 0 -- -- 30
2020-06-24 00:00:00 29.7 10 Norte 17 Norte 0 -- -- 26
2020-06-23 23:00:00 29.9 7 Oeste 15 Oeste 0 -- -- 26
2020-06-23 22:00:00 32.2 7 Sur 18 Sudoeste 0 -- -- 24
2020-06-23 21:00:00 33.9 8 Nordeste 14 Nordeste 0 -- -- 22
2020-06-23 20:00:00 35.6 14 Este 20 Este 0 -- -- 18
2020-06-23 19:00:00 36.3 5 Este 25 Este 0 -- -- 18
2020-06-23 18:00:00 36.4 10 Este 20 Este 0 -- -- 18
2020-06-23 17:00:00 36.1 9 Nordeste 32 Sudeste 0 -- -- 18
2020-06-23 16:00:00 35.6 8 Sudeste 20 Sudeste 0 -- -- 19
2020-06-23 15:00:00 34.8 10 Nordeste 24 Este -- -- -- 20
2020-06-23 14:00:00 34 10 Nordeste 22 Nordeste 0 -- -- 21
2020-06-23 13:00:00 32.6 8 Este 17 Nordeste 0 -- -- 23
2020-06-23 12:00:00 30.9 9 Sudeste 17 Sudeste 0 -- -- 27
2020-06-23 11:00:00 27.9 8 Nordeste 13 Nordeste 0 -- -- 35
2020-06-23 10:00:00 24.7 7 Nordeste 15 Nordeste 0 -- -- 45
2020-06-23 09:00:00 21.7 10 Nordeste 21 Nordeste 0 -- -- 54
2020-06-23 08:00:00 19.1 19 Nordeste 25 Nordeste 0 -- -- 59
2020-06-23 07:00:00 19.1 17 Nordeste 22 Nordeste 0 -- -- 53
2020-06-23 06:00:00 21 14 Nordeste 20 Nordeste 0 -- -- 48
2020-06-23 05:00:00 21.1 9 Nordeste 13 Nordeste 0 -- -- 37
2020-06-23 04:00:00 19.7 3 Este 6 Nordeste 0 -- -- 43
2020-06-23 03:00:00 22.1 5 Nordeste 9 Nordeste 0 -- -- 36
2020-06-23 02:00:00 22.3 0 Calma 8 Nordeste 0 -- -- 35
2020-06-23 01:00:00 24.7 8 Nordeste 14 Nordeste 0 -- -- 30
2020-06-23 00:00:00 25 4 Nordeste 6 Nordeste 0 -- -- 31
2020-06-22 23:00:00 26.1 0 Calma 5 Nordeste 0 -- -- 30
2020-06-22 22:00:00 29.9 4 Nordeste 9 Oeste 0 -- -- 24
2020-06-22 21:00:00 34.4 8 Oeste 18 Oeste 0 -- -- 17
2020-06-22 20:00:00 35.8 7 Noroeste 15 Oeste 0 -- -- 17
2020-06-22 19:00:00 36.5 8 Oeste 18 Oeste 0 -- -- 17
2020-06-22 18:00:00 36.2 5 Noroeste 21 Sur 0 -- -- 18
2020-06-22 17:00:00 35.9 6 Oeste 23 Oeste 0 -- -- 18
2020-06-22 16:00:00 35.6 10 Este 21 Sur 0 -- -- 19
2020-06-22 15:00:00 34.7 10 Este 19 Nordeste 0 -- -- 20
2020-06-22 14:00:00 33.8 12 Este 24 Este 0 -- -- 19
2020-06-22 13:00:00 32.1 14 Este 27 Nordeste 0 -- -- 27
2020-06-22 12:00:00 29.8 17 Este 28 Este 0 -- -- 33
2020-06-22 11:00:00 27 20 Este 29 Este 0 -- -- 40
2020-06-22 10:00:00 24.2 21 Este 42 Este 0 -- -- 48
2020-06-22 09:00:00 21.9 27 Nordeste 42 Nordeste 0 -- -- 54
2020-06-22 08:00:00 20.2 25 Nordeste 37 Nordeste 0 -- -- 57
2020-06-22 07:00:00 20.3 22 Este 32 Este 0 -- -- 42
2020-06-22 06:00:00 19.2 9 Nordeste 13 Este 0 -- -- 42
2020-06-22 05:00:00 17.9 5 Nordeste 7 Nordeste 0 -- -- 51
2020-06-22 04:00:00 18.6 5 Nordeste 7 Nordeste 0 -- -- 47
2020-06-22 03:00:00 19.3 3 Nordeste 4 Nordeste 0 -- -- 43
2020-06-22 02:00:00 21.6 3 Norte 9 Noroeste 0 -- -- 36
2020-06-22 01:00:00 23.7 7 Norte 11 Noroeste 0 -- -- 29
2020-06-22 00:00:00 25.1 9 Noroeste 14 Noroeste 0 -- -- 24
2020-06-21 23:00:00 26.3 8 Norte 13 Noroeste 0 -- -- 20
2020-06-21 22:00:00 28 9 Noroeste 15 Noroeste 0 -- -- 18
2020-06-21 21:00:00 30.9 12 Noroeste 22 Noroeste 0 -- -- 16
2020-06-21 20:00:00 32.3 12 Noroeste 23 Oeste 0 -- -- 14
2020-06-21 19:00:00 33 12 Noroeste 27 Oeste 0 -- -- 16
2020-06-21 18:00:00 33.2 10 Oeste 27 Oeste 0 -- -- 18
2020-06-21 17:00:00 33.4 9 Noroeste 29 Noroeste 0 -- -- 18
2020-06-21 16:00:00 32.6 10 Oeste 28 Noroeste 0 -- -- 19
2020-06-21 15:00:00 32.1 10 Sudoeste 31 Sudoeste 0 -- -- 20
2020-06-21 14:00:00 31.3 12 Sudoeste 28 Oeste 0 -- -- 23
2020-06-21 13:00:00 29.9 8 Oeste 19 Sudoeste 0 -- -- 26
2020-06-21 12:00:00 28.2 5 Oeste 11 Oeste 0 -- -- 29
2020-06-21 11:00:00 25.9 5 Noroeste 13 Oeste 0 -- -- 36
2020-06-21 10:00:00 23.3 5 Oeste 12 Noroeste 0 -- -- 42
2020-06-21 09:00:00 20.7 5 Oeste 9 Noroeste 0 -- -- 47
2020-06-21 08:00:00 16.8 5 Oeste 7 Noroeste 0 -- -- 55
2020-06-21 07:00:00 14.8 5 Noroeste 6 Noroeste 0 -- -- 60
2020-06-21 06:00:00 15.6 0 Calma 8 Noroeste 0 -- -- 54
2020-06-21 05:00:00 17.6 3 Norte 12 Oeste 0 -- -- 47
2020-06-21 04:00:00 16.7 3 Noroeste 6 Oeste 0 -- -- 47
2020-06-21 03:00:00 17.3 2 Noroeste 6 Oeste 0 -- -- 46
2020-06-21 02:00:00 17.7 0 Calma 4 Noroeste 0 -- -- 41
2020-06-21 01:00:00 19.3 3 Noroeste -- -- 0 -- -- 38
2020-06-21 00:00:00 22.1 5 Noroeste 10 Noroeste 0 -- -- 29
2020-06-20 23:00:00 25.2 7 Noroeste 17 Noroeste 0 -- -- 24
2020-06-20 22:00:00 26.7 12 Noroeste 23 Noroeste 0 -- -- 26
2020-06-20 21:00:00 29.1 13 Noroeste 27 Noroeste 0 -- -- 22
2020-06-20 20:00:00 30.6 16 Oeste 32 Noroeste 0 -- -- 22
2020-06-20 19:00:00 31.5 10 Oeste 28 Oeste 0 -- -- 20
2020-06-20 18:00:00 31.8 10 Oeste 37 Oeste 0 -- -- 20
2020-06-20 17:00:00 31.5 12 Oeste 30 Oeste 0 -- -- 20
2020-06-20 16:00:00 31 13 Oeste 28 Sudoeste 0 -- -- 22
2020-06-20 15:00:00 30.1 14 Noroeste 30 Oeste 0 -- -- 23
2020-06-20 14:00:00 29.9 8 Sudoeste 26 Oeste 0 -- -- 24
2020-06-20 13:00:00 28.8 13 Oeste 24 Oeste 0 -- -- 25
2020-06-20 12:00:00 27.2 9 Oeste 20 Sudoeste 0 -- -- 27
2020-06-20 11:00:00 25.8 6 Oeste 12 Sudoeste 0 -- -- 27
2020-06-20 10:00:00 23.5 3 Oeste 6 Oeste 0 -- -- 32
2020-06-20 09:00:00 20.3 2 Sudoeste 4 Oeste 0 -- -- 35
2020-06-20 08:00:00 15.1 3 Noroeste 3 Noroeste 0 -- -- 60
2020-06-20 07:00:00 13 2 Este 3 Nordeste 0 -- -- 55
2020-06-20 06:00:00 13.4 2 Nordeste -- -- 0 -- -- 50
2020-06-20 05:00:00 13.8 0 Calma 3 Nordeste 0 -- -- 50
2020-06-20 04:00:00 14.4 2 Norte 3 Nordeste 0 -- -- 50
2020-06-20 03:00:00 16 0 Calma 5 Noroeste 0 -- -- 40
2020-06-20 02:00:00 17.1 2 Norte 8 Oeste 0 -- -- 38
2020-06-20 01:00:00 17.9 3 Noroeste 8 Noroeste 0 -- -- 37
2020-06-20 00:00:00 19.5 0 Calma 8 Oeste 0 -- -- 35
2020-06-19 23:00:00 21.8 6 Noroeste 11 Noroeste 0 -- -- 30
2020-06-19 22:00:00 24.3 8 Noroeste 18 Noroeste 0 -- -- 27
2020-06-19 21:00:00 26.9 14 Noroeste 32 Oeste 0 -- -- 25
2020-06-19 20:00:00 28.6 12 Noroeste 24 Oeste 0 -- -- 23
2020-06-19 19:00:00 29.2 14 Oeste 30 Oeste 0 -- -- 22
2020-06-19 18:00:00 29.3 13 Sudoeste 33 Sudoeste 0 -- -- 23
2020-06-19 17:00:00 28.9 17 Oeste 35 Oeste 0 -- -- 25
2020-06-19 16:00:00 28.5 14 Oeste 37 Oeste 0 -- -- 27
2020-06-19 15:00:00 27.7 15 Sudoeste 29 Sudoeste 0 -- -- 28
2020-06-19 14:00:00 26.8 12 Oeste 27 Oeste 0 -- -- 32
2020-06-19 13:00:00 26.1 12 Oeste 30 Oeste 0 -- -- 35
2020-06-19 12:00:00 24.2 11 Noroeste 22 Oeste 0 -- -- 41
2020-06-19 11:00:00 21.9 9 Oeste 16 Oeste 0 -- -- 46
2020-06-19 10:00:00 19 9 Oeste 15 Sudoeste 0 -- -- 54
2020-06-19 09:00:00 17 9 Oeste 13 Sudoeste 0 -- -- 61
2020-06-19 08:00:00 15 6 Oeste 11 Oeste 0 -- -- 68
2020-06-19 07:00:00 13.5 3 Oeste 9 Oeste 0 -- -- 70
2020-06-19 06:00:00 13.5 4 Oeste 7 Oeste 0 -- -- 66
2020-06-19 05:00:00 13.2 2 Noroeste 5 Oeste 0 -- -- 62
2020-06-19 04:00:00 13.9 0 Calma 5 Oeste 0 -- -- 57
2020-06-19 03:00:00 15.1 2 Norte 5 Oeste 0 -- -- 52
2020-06-19 02:00:00 16.1 3 Noroeste 7 Sudoeste 0 -- -- 46
2020-06-19 01:00:00 17.4 2 Noroeste 8 Noroeste 0 -- -- 42
2020-06-19 00:00:00 20.1 6 Noroeste 12 Noroeste 0 -- -- 36
2020-06-18 23:00:00 22.3 9 Noroeste 18 Noroeste 0 -- -- 33
2020-06-18 22:00:00 23.5 11 Noroeste 22 Noroeste 0 -- -- 32
2020-06-18 21:00:00 26.1 13 Noroeste 26 Noroeste 0 -- -- 29
2020-06-18 20:00:00 27.4 15 Oeste 29 Oeste 0 -- -- 26
2020-06-18 19:00:00 27.9 12 Noroeste 27 Oeste 0 -- -- 26
2020-06-18 18:00:00 27.7 12 Noroeste 27 Oeste 0 -- -- 27
2020-06-18 17:00:00 27.5 16 Noroeste 29 Oeste 0 -- -- 28
2020-06-18 16:00:00 27.4 15 Oeste 26 Noroeste 0 -- -- 28
2020-06-18 15:00:00 26.6 11 Sudoeste 26 Oeste 0 -- -- 31
2020-06-18 14:00:00 25.4 14 Oeste 26 Sudoeste 0 -- -- 32
2020-06-18 13:00:00 24.4 8 Oeste 25 Oeste 0 -- -- 35
2020-06-18 12:00:00 22.8 6 Sudoeste 16 Sudoeste 0 -- -- 40
2020-06-18 11:00:00 20.8 7 Oeste 15 Noroeste 0 -- -- 45
2020-06-18 10:00:00 18.9 8 Noroeste 15 Oeste 0 -- -- 51
2020-06-18 09:00:00 16.7 6 Oeste 11 Oeste 0 -- -- 58
2020-06-18 08:00:00 12.8 0 Calma 4 Oeste 0 -- -- 70
2020-06-18 07:00:00 10.6 0 Calma 3 Norte 0 -- -- 74
2020-06-18 06:00:00 11 0 Calma 4 Norte 0 -- -- 72
2020-06-18 05:00:00 11.7 0 Calma 3 Nordeste 0 -- -- 67
2020-06-18 04:00:00 12.2 0 Calma 4 Norte 0 -- -- 63
2020-06-18 03:00:00 12.8 2 Norte 3 Norte 0 -- -- 59
2020-06-18 02:00:00 13.5 0 Calma 5 Norte 0 -- -- 53
2020-06-18 01:00:00 14 0 Calma 5 Sur 0 -- -- 46
2020-06-18 00:00:00 16.5 2 Sudoeste 11 Noroeste 0 -- -- 39
2020-06-17 23:00:00 17.2 5 Noroeste 9 Noroeste 0 -- -- 35
2020-06-17 22:00:00 20.4 8 Oeste 22 Oeste 0 -- -- 30
2020-06-17 21:00:00 22.8 14 Oeste 32 Noroeste 0 -- -- 30
2020-06-17 20:00:00 24 17 Oeste 30 Oeste 0 -- -- 29
2020-06-17 19:00:00 24.9 18 Oeste 39 Oeste 0 -- -- 26
2020-06-17 18:00:00 25.2 15 Oeste 37 Sudoeste 0 -- -- 27
2020-06-17 17:00:00 24.8 18 Oeste 34 Oeste 0 -- -- 26
2020-06-17 16:00:00 24.4 17 Oeste 37 Oeste 0 -- -- 26
2020-06-17 15:00:00 23.9 19 Oeste 41 Oeste 0 -- -- 25
2020-06-17 14:00:00 22.9 17 Oeste 30 Sudoeste 0 -- -- 31
2020-06-17 13:00:00 21.4 14 Oeste 29 Oeste 0 -- -- 37
2020-06-17 12:00:00 20.3 12 Oeste 26 Oeste 0 -- -- 42
2020-06-17 11:00:00 18.5 12 Oeste 22 Oeste 0 -- -- 51
2020-06-17 10:00:00 16.5 8 Oeste 17 Oeste 0 -- -- 63
2020-06-17 09:00:00 15 7 Oeste 16 Oeste 0 -- -- 70
2020-06-17 08:00:00 13.3 8 Oeste 12 Oeste 0 -- -- 80
2020-06-17 07:00:00 12.6 6 Oeste 10 Oeste 0 -- -- 81
2020-06-17 06:00:00 12.9 5 Sudoeste 18 Sudoeste 0 -- -- 78
2020-06-17 05:00:00 13.5 7 Sudoeste 15 Oeste 0 -- -- 76
2020-06-17 04:00:00 14.9 9 Oeste 17 Sudoeste 0 -- -- 69
2020-06-17 03:00:00 14 3 Oeste 12 Sudoeste 0 -- -- 73
2020-06-17 02:00:00 15.5 3 Sudeste 9 Noroeste 0 -- -- 68
2020-06-17 01:00:00 15.6 0 Calma 4 Oeste 0 -- -- 68
2020-06-17 00:00:00 17.5 0 Calma 13 Oeste 0 -- -- 60
2020-06-16 23:00:00 19.9 8 Oeste 28 Oeste 0 -- -- 53
2020-06-16 22:00:00 21.3 17 Oeste 37 Oeste 0 -- -- 48
2020-06-16 21:00:00 22.9 20 Oeste 37 Oeste 0 -- -- 44
2020-06-16 20:00:00 23.6 23 Oeste 37 Oeste 0 -- -- 40
2020-06-16 19:00:00 24.6 23 Oeste 41 Oeste 0 -- -- 37
2020-06-16 18:00:00 25.3 23 Oeste 43 Oeste 0 -- -- 37
2020-06-16 17:00:00 24.2 21 Oeste 52 Oeste 0 -- -- 39
2020-06-16 16:00:00 24.6 22 Oeste 47 Oeste 0 -- -- 39
2020-06-16 15:00:00 24.6 25 Oeste 40 Oeste 0 -- -- 37
2020-06-16 14:00:00 23.8 23 Oeste 39 Oeste 0 -- -- 38
2020-06-16 13:00:00 22.8 21 Oeste 35 Oeste 0 -- -- 41
2020-06-16 12:00:00 21.3 21 Oeste 35 Oeste 0 -- -- 45
2020-06-16 11:00:00 20.1 17 Oeste 29 Oeste 0 -- -- 50
2020-06-16 10:00:00 18.3 10 Oeste 19 Oeste 0 -- -- 58
2020-06-16 09:00:00 16.6 11 Oeste 20 Oeste 0 -- -- 64
2020-06-16 08:00:00 14.7 5 Oeste 9 Noroeste 0 -- -- 71
2020-06-16 07:00:00 12.9 2 Sudoeste 12 Oeste 0 -- -- 76
2020-06-16 06:00:00 15.3 6 Oeste 17 Oeste 0 -- -- 66
2020-06-16 05:00:00 16.6 10 Noroeste 18 Noroeste 0 -- -- 61
2020-06-16 04:00:00 17 5 Oeste 10 Sudoeste 0 -- -- 58
2020-06-16 03:00:00 17.4 3 Oeste 10 Sudoeste 0 -- -- 54
2020-06-16 02:00:00 16.9 3 Sudoeste 7 Sur 0 -- -- 54
2020-06-16 01:00:00 17.5 3 Sudoeste 6 Sur 0 -- -- 49
2020-06-16 00:00:00 18.1 0 Calma 3 Nordeste 0 -- -- 44
2020-06-15 23:00:00 19.3 0 Calma 13 Oeste 0 -- -- 37
2020-06-15 22:00:00 21.1 8 Oeste 26 Oeste 0 -- -- 33
2020-06-15 21:00:00 22.4 18 Oeste 31 Oeste 0 -- -- 32
2020-06-15 20:00:00 24.2 21 Noroeste 34 Oeste 0 -- -- 30
2020-06-15 19:00:00 25.4 19 Oeste 36 Oeste 0 -- -- 29
2020-06-15 18:00:00 26.5 21 Oeste 44 Oeste 0 -- -- 29
2020-06-15 17:00:00 26.7 18 Oeste 35 Sudoeste 0 -- -- 29
2020-06-15 16:00:00 25.8 18 Sudoeste 37 Oeste 0 -- -- 29
2020-06-15 15:00:00 24.7 18 Oeste 31 Oeste 0 -- -- 31
2020-06-15 14:00:00 24.2 14 Sudoeste 33 Sudoeste 0 -- -- 33
2020-06-15 13:00:00 23.2 14 Sudoeste 32 Sudoeste 0 -- -- 38
2020-06-15 12:00:00 21.2 13 Oeste 26 Oeste 0 -- -- 42
2020-06-15 11:00:00 19.8 11 Oeste 22 Sudoeste 0 -- -- 46
2020-06-15 10:00:00 17.8 11 Oeste 19 Oeste 0 -- -- 56
2020-06-15 09:00:00 15.5 8 Oeste 12 Oeste 0 -- -- 66
2020-06-15 08:00:00 12.4 2 Oeste 5 Oeste 0 -- -- 77
2020-06-15 07:00:00 10.6 0 Calma 6 Oeste 0 -- -- 82
2020-06-15 06:00:00 11.1 4 Noroeste 6 Oeste 0 -- -- 78
2020-06-15 05:00:00 11.6 5 Noroeste 9 Noroeste 0 -- -- 72
2020-06-15 04:00:00 12 2 Noroeste 6 Oeste 0 -- -- 66
2020-06-15 03:00:00 12.6 3 Oeste 6 Oeste 0 -- -- 62
2020-06-15 02:00:00 14.1 5 Noroeste 10 Noroeste 0 -- -- 56
2020-06-15 01:00:00 14 0 Calma 3 Sudoeste 0 -- -- 54
2020-06-15 00:00:00 15.7 0 Calma 5 Noroeste 0 -- -- 48
2020-06-14 23:00:00 17.7 3 Noroeste 11 Noroeste 0 -- -- 41
2020-06-14 22:00:00 20.1 6 Noroeste 21 Noroeste 0 -- -- 37
2020-06-14 21:00:00 22.6 17 Noroeste 31 Noroeste 0 -- -- 34
2020-06-14 20:00:00 24 18 Oeste 30 Oeste 0 -- -- 33
2020-06-14 19:00:00 24.6 18 Oeste 36 Oeste 0 -- -- 31
2020-06-14 18:00:00 25.2 15 Oeste 34 Noroeste 0 -- -- 30
2020-06-14 17:00:00 24.8 14 Oeste 34 Noroeste 0 -- -- 30
2020-06-14 16:00:00 24.7 15 Oeste 42 Oeste 0 -- -- 30
2020-06-14 15:00:00 23.6 14 Oeste 32 Oeste 0 -- -- 33
2020-06-14 14:00:00 23.4 15 Oeste 32 Oeste 0 -- -- 34
2020-06-14 13:00:00 21.6 16 Oeste 32 Oeste 0 -- -- 39
2020-06-14 12:00:00 21.3 11 Oeste 33 Oeste 0 -- -- 38
2020-06-14 11:00:00 19.9 9 Oeste 19 Oeste 0 -- -- 42
2020-06-14 10:00:00 18.5 8 Noroeste 14 Noroeste 0 -- -- 48
2020-06-14 09:00:00 15.3 4 Oeste 8 Oeste 0 -- -- 57
2020-06-14 08:00:00 11.5 0 Calma 3 Nordeste 0 -- -- 77
2020-06-14 07:00:00 11.9 0 Calma 6 Noroeste 0 -- -- 69
2020-06-14 06:00:00 12.3 3 Noroeste 4 Noroeste 0 -- -- 70
2020-06-14 05:00:00 12.4 0 Calma 4 Norte 0 -- -- 71
2020-06-14 04:00:00 12.4 3 Norte 6 Nordeste 0 -- -- 67
2020-06-14 03:00:00 12.3 0 Calma -- -- 0 -- -- 68
2020-06-14 02:00:00 13.5 0 Calma 7 Noroeste 0 -- -- 62
2020-06-14 01:00:00 15.3 4 Noroeste 14 Noroeste 0 -- -- 54
2020-06-14 00:00:00 16.5 9 Noroeste 16 Noroeste 0 -- -- 49
2020-06-13 23:00:00 17.2 10 Noroeste 19 Norte 0 -- -- 45
2020-06-13 22:00:00 18 9 Noroeste 21 Oeste 0 -- -- 41
2020-06-13 21:00:00 20.3 13 Oeste 30 Oeste 0 -- -- 37
2020-06-13 20:00:00 21.2 15 Noroeste 29 Noroeste 0 -- -- 35
2020-06-13 19:00:00 21.8 19 Oeste 35 Oeste 0 -- -- 34
2020-06-13 18:00:00 21.9 16 Oeste 32 Oeste 0 -- -- 35
2020-06-13 17:00:00 21.7 17 Oeste 32 Sudoeste 0 -- -- 34
2020-06-13 16:00:00 21.7 16 Sudoeste 31 Oeste 0 -- -- 35
2020-06-13 15:00:00 20.4 9 Oeste 38 Oeste 0 -- -- 40
2020-06-13 14:00:00 19.7 9 Sudoeste 25 Oeste 0 -- -- 40
2020-06-13 13:00:00 18.5 11 Noroeste 24 Oeste 0 -- -- 44
2020-06-13 12:00:00 17.1 11 Noroeste 30 Oeste 0 -- -- 51
2020-06-13 11:00:00 15.6 12 Oeste 26 Noroeste 0 -- -- 59
2020-06-13 10:00:00 13.5 14 Oeste 23 Oeste 0 -- -- 69
2020-06-13 09:00:00 11.4 10 Oeste 16 Sudoeste 0 -- -- 83
2020-06-13 08:00:00 9.4 5 Oeste 10 Oeste 0 -- -- 92
2020-06-13 07:00:00 7.8 2 Oeste 8 Sudeste 0 -- -- 93
2020-06-13 06:00:00 8.1 0 Calma 5 Oeste 0 -- -- 91
2020-06-13 05:00:00 9.3 3 Sudoeste 11 Oeste 0 -- -- 86
2020-06-13 04:00:00 10.5 7 Oeste 15 Sudoeste 0 -- -- 85
2020-06-13 03:00:00 10.4 5 Sudoeste 10 Oeste 0 -- -- 83
2020-06-13 02:00:00 10.4 0 Calma 12 Noroeste 0 -- -- 82
2020-06-13 01:00:00 11.7 8 Noroeste 29 Noroeste 0 -- -- 77
2020-06-13 00:00:00 13.1 18 Noroeste 39 Oeste 0 -- -- 72
2020-06-12 23:00:00 14.5 21 Noroeste 44 Oeste 0 -- -- 63
2020-06-12 22:00:00 16.3 13 Oeste 33 Oeste 0 -- -- 48
2020-06-12 21:00:00 17.5 14 Oeste 32 Oeste 0 -- -- 43
2020-06-12 20:00:00 18 18 Oeste 36 Oeste 0 -- -- 41
2020-06-12 19:00:00 18.6 19 Oeste 35 Sudoeste 0 -- -- 40
2020-06-12 18:00:00 18.5 21 Oeste 37 Oeste 0 -- -- 43
2020-06-12 17:00:00 18.7 19 Sudoeste 35 Sudoeste 0 -- -- 44
2020-06-12 16:00:00 17.5 22 Oeste 41 Oeste 0 -- -- 46
2020-06-12 15:00:00 16.4 22 Oeste 37 Sudoeste 0 -- -- 48
2020-06-12 14:00:00 15.5 19 Oeste 35 Oeste 0 -- -- 53
2020-06-12 13:00:00 15.2 19 Oeste 34 Oeste 0 -- -- 53
2020-06-12 12:00:00 14.7 17 Oeste 35 Oeste 0 -- -- 55
2020-06-12 11:00:00 13.8 19 Oeste 32 Oeste 0 -- -- 58
2020-06-12 10:00:00 12.3 18 Oeste 35 Oeste 0 -- -- 64
2020-06-12 09:00:00 11.2 22 Oeste 35 Noroeste 0 -- -- 70
2020-06-12 08:00:00 9.6 12 Oeste 23 Oeste 0 -- -- 76
2020-06-12 07:00:00 9 14 Oeste 24 Sudoeste 0 -- -- 77
2020-06-12 06:00:00 9.8 12 Sudoeste 32 Oeste 0 -- -- 74
2020-06-12 05:00:00 11 18 Oeste 44 Oeste 0 -- -- 68
2020-06-12 04:00:00 12.2 20 Oeste 35 Oeste 0 -- -- 64
2020-06-12 03:00:00 13.4 23 Oeste 38 Oeste 0 -- -- 66
2020-06-12 02:00:00 14.3 23 Oeste 44 Oeste 0 -- -- 64
2020-06-12 01:00:00 14.8 21 Oeste 42 Oeste 0 -- -- 67
2020-06-12 00:00:00 15 21 Oeste 47 Oeste 0 -- -- 70